LEPP/PNA METAR and TAF weather

Enter ICAO airport designator
Station Type Date Time Source
LEPP METAR 2018/12/13 06:00 UTC NOAA

LEPP 130600Z 29003KT 260V340 5000 RA FEW015 BKN036 BKN040 07/06 Q1007


Station Type Date Time Source
LEPP Decoded METAR 2018/12/13 06:00 UTC NOAA

Pamplona / Noain, Spain (LEPP) 42-46N 001-38W 453M
Dec 13, 2018 - 01:00 AM EST / 2018.12.13 0600 UTC
Wind: from the WNW (290 degrees) at 3 MPH (3 KT) (direction variable):0
Visibility: 3 mile(s):0
Sky conditions: mostly cloudy
Weather: rain
Temperature: 44 F (7 C)
Dew Point: 42 F (6 C)
Relative Humidity: 93%
Pressure (altimeter): 29.74 in. Hg (1007 hPa)
ob: LEPP 130600Z 29003KT 260V340 5000 RA FEW015 BKN036 BKN040 07/06 Q1007
cycle: 6

Station Type Date Time Source
LEPP TAF 2018/12/13 03:31 UTC NOAA

TAF LEPP 130200Z 1303/1403 14008KT 9999 SCT020 BKN040 TX09/1312Z TN05/1306Z
BECMG 1309/1313 34010KT
TEMPO 1303/1403 RA
TEMPO 1306/1321 3000 RA BKN014
TEMPO 1321/1403 34015G25KT


Example: see airport list